createdAt,value
2022-12-31T00:01:58.918Z,1.40
2022-12-31T00:04:34.990Z,1.27
2022-12-31T00:07:11.348Z,1.30
2022-12-31T00:09:47.369Z,1.60
2022-12-31T00:12:50.492Z,1.52
2022-12-31T00:15:29.090Z,1.80
2022-12-31T00:18:07.899Z,1.50
2022-12-31T00:20:46.932Z,1.70
2022-12-31T00:23:22.902Z,1.77
2022-12-31T00:25:59.021Z,1.75
2022-12-31T00:28:52.035Z,1.70
2022-12-31T00:31:32.731Z,1.90
2022-12-31T00:34:09.363Z,1.80
2022-12-31T00:36:47.761Z,1.83
2022-12-31T00:39:23.715Z,1.80
2022-12-31T00:41:59.517Z,1.60
2022-12-31T00:44:37.547Z,1.90
2022-12-31T00:47:13.207Z,1.45
2022-12-31T00:49:49.008Z,1.90
2022-12-31T00:52:26.482Z,1.60
2022-12-31T00:55:02.924Z,2.08
2022-12-31T00:57:38.251Z,1.88
2022-12-31T01:00:17.106Z,1.48
2022-12-31T01:02:56.851Z,1.85
2022-12-31T01:05:34.846Z,1.98
2022-12-31T01:08:10.523Z,1.63
2022-12-31T01:11:02.060Z,1.40
2022-12-31T01:13:37.899Z,1.70
2022-12-31T01:16:17.715Z,1.60
2022-12-31T01:18:56.142Z,1.63
2022-12-31T01:21:31.968Z,1.50
2022-12-31T01:24:09.169Z,1.48
2022-12-31T01:26:46.596Z,1.70
2022-12-31T01:29:22.382Z,1.40
2022-12-31T01:31:59.780Z,1.63
2022-12-31T01:34:35.883Z,1.40
2022-12-31T01:37:14.797Z,1.50
2022-12-31T01:39:50.309Z,1.63
2022-12-31T01:42:26.105Z,1.40
2022-12-31T01:45:02.079Z,1.70
2022-12-31T01:47:49.012Z,1.55
2022-12-31T01:50:28.766Z,1.40
2022-12-31T01:53:06.845Z,1.20
2022-12-31T01:55:51.189Z,1.40
2022-12-31T01:58:29.903Z,1.50
2022-12-31T02:01:05.438Z,1.60
2022-12-31T02:03:43.646Z,1.48
2022-12-31T02:06:25.191Z,1.55
2022-12-31T02:09:02.867Z,1.50
2022-12-31T02:11:39.944Z,1.70
2022-12-31T02:14:19.394Z,1.20
2022-12-31T02:17:00.999Z,1.58
2022-12-31T02:20:00.767Z,1.42
2022-12-31T02:22:50.930Z,1.35
2022-12-31T02:25:59.484Z,1.23
2022-12-31T02:28:55.897Z,1.70
2022-12-31T02:31:38.311Z,1.42
2022-12-31T02:34:19.416Z,1.27
2022-12-31T02:36:57.822Z,1.67
2022-12-31T02:39:35.059Z,1.38
2022-12-31T02:42:13.270Z,1.60
2022-12-31T02:44:48.818Z,1.50
2022-12-31T02:47:35.704Z,1.67
2022-12-31T02:50:31.355Z,1.42
2022-12-31T02:53:23.266Z,1.70
2022-12-31T02:56:05.717Z,1.70
2022-12-31T02:58:59.847Z,1.58
2022-12-31T03:01:56.146Z,1.90
2022-12-31T03:04:39.022Z,1.70
2022-12-31T03:07:15.038Z,1.30
2022-12-31T03:09:51.628Z,1.80
2022-12-31T03:12:45.677Z,2.50
2022-12-31T03:15:24.768Z,2.33
2022-12-31T03:18:01.218Z,1.50
2022-12-31T03:20:54.914Z,1.48
2022-12-31T03:23:33.222Z,1.42
2022-12-31T03:26:11.864Z,1.40
2022-12-31T03:28:49.438Z,1.77
2022-12-31T03:31:23.999Z,1.70
2022-12-31T03:33:59.214Z,2.10
2022-12-31T03:36:36.148Z,1.63
2022-12-31T03:39:11.778Z,1.40
2022-12-31T03:41:46.931Z,1.63
2022-12-31T03:44:22.077Z,1.83
2022-12-31T03:46:57.226Z,1.67
2022-12-31T03:49:32.177Z,1.60
2022-12-31T03:52:08.532Z,1.63
2022-12-31T03:54:43.871Z,1.30
2022-12-31T03:57:19.555Z,1.50
2022-12-31T03:59:54.286Z,1.60
2022-12-31T04:02:29.631Z,1.40
2022-12-31T04:05:04.961Z,1.60
2022-12-31T04:07:41.832Z,1.63
2022-12-31T04:10:17.412Z,1.83
2022-12-31T04:12:52.593Z,1.58
2022-12-31T04:15:33.582Z,1.90
2022-12-31T04:18:14.383Z,1.30
2022-12-31T04:21:02.502Z,1.40
2022-12-31T04:23:56.181Z,1.58
2022-12-31T04:26:44.890Z,2.00
2022-12-31T04:29:28.398Z,2.00
2022-12-31T04:32:19.896Z,2.00
2022-12-31T04:35:08.505Z,2.38
2022-12-31T04:37:52.327Z,2.45
2022-12-31T04:40:35.392Z,1.85
2022-12-31T04:43:13.676Z,1.98
2022-12-31T04:45:57.904Z,2.10
2022-12-31T04:48:41.742Z,1.73
2022-12-31T04:51:19.850Z,1.80
2022-12-31T04:54:00.430Z,2.10
2022-12-31T04:57:02.795Z,2.00
2022-12-31T04:59:42.146Z,2.05
2022-12-31T05:02:22.597Z,2.20
2022-12-31T05:05:02.312Z,2.28
2022-12-31T05:07:42.356Z,1.67
2022-12-31T05:10:18.205Z,2.50
2022-12-31T05:12:58.859Z,2.17
2022-12-31T05:15:39.431Z,2.17
2022-12-31T05:18:19.134Z,1.95
2022-12-31T05:21:02.665Z,2.30
2022-12-31T05:23:40.606Z,1.90
2022-12-31T05:26:24.572Z,1.90
2022-12-31T05:29:05.355Z,2.42
2022-12-31T05:32:01.894Z,2.10
2022-12-31T05:34:50.535Z,1.88
2022-12-31T05:37:34.443Z,2.08
2022-12-31T05:40:28.403Z,1.90
2022-12-31T05:43:12.219Z,2.22
2022-12-31T05:46:01.881Z,2.13
2022-12-31T05:48:43.295Z,2.53
2022-12-31T05:51:38.510Z,2.35
2022-12-31T05:54:22.943Z,2.22
2022-12-31T05:56:59.697Z,2.38
2022-12-31T05:59:35.336Z,2.10
2022-12-31T06:02:13.893Z,1.90
2022-12-31T06:04:51.201Z,2.20
2022-12-31T06:07:26.714Z,2.13
2022-12-31T06:10:02.347Z,2.13
2022-12-31T06:12:37.316Z,2.67
2022-12-31T06:15:12.768Z,2.58
2022-12-31T06:17:50.881Z,2.65
2022-12-31T06:20:28.018Z,2.15
2022-12-31T06:23:03.233Z,2.42
2022-12-31T06:25:41.116Z,2.15
2022-12-31T06:28:20.541Z,2.70
2022-12-31T06:31:03.291Z,2.35
2022-12-31T06:33:43.707Z,2.42
2022-12-31T06:36:20.808Z,2.75
2022-12-31T06:38:57.090Z,2.55
2022-12-31T06:41:33.270Z,2.42
2022-12-31T06:44:08.660Z,2.30
2022-12-31T06:46:44.592Z,2.28
2022-12-31T06:49:26.039Z,1.90
2022-12-31T06:52:01.551Z,2.25
2022-12-31T06:54:36.685Z,2.15
2022-12-31T06:57:13.747Z,2.40
2022-12-31T06:59:51.670Z,1.90
2022-12-31T07:02:36.302Z,1.83
2022-12-31T07:05:31.780Z,2.28
2022-12-31T07:08:17.304Z,2.40
2022-12-31T07:10:57.139Z,2.20
2022-12-31T07:13:46.000Z,2.17
2022-12-31T07:16:25.684Z,2.00
2022-12-31T07:19:04.553Z,1.67
2022-12-31T07:21:44.011Z,1.92
2022-12-31T07:24:21.370Z,2.10
2022-12-31T07:27:05.209Z,2.00
2022-12-31T07:29:53.128Z,2.25
2022-12-31T07:32:36.881Z,1.83
2022-12-31T07:35:22.751Z,2.00
2022-12-31T07:38:06.704Z,1.80
2022-12-31T07:40:43.558Z,2.20
2022-12-31T07:43:21.176Z,2.53
2022-12-31T07:45:58.047Z,1.77
2022-12-31T07:48:33.342Z,2.58
2022-12-31T07:51:08.337Z,2.03
2022-12-31T07:53:45.707Z,1.80
2022-12-31T07:56:21.169Z,2.28
2022-12-31T07:59:12.775Z,2.35
2022-12-31T08:01:53.924Z,2.83
2022-12-31T08:04:33.542Z,2.80
2022-12-31T08:07:15.072Z,2.97
2022-12-31T08:09:58.247Z,2.60
2022-12-31T08:12:36.749Z,2.67
2022-12-31T08:15:17.692Z,3.30
2022-12-31T08:17:52.161Z,2.90
2022-12-31T08:20:27.639Z,2.90
2022-12-31T08:23:27.596Z,3.45
2022-12-31T08:26:11.716Z,3.08
2022-12-31T08:28:53.264Z,3.00
2022-12-31T08:31:29.242Z,3.28
2022-12-31T08:34:10.965Z,3.53
2022-12-31T08:36:51.108Z,3.65
2022-12-31T08:39:29.824Z,3.20
2022-12-31T08:42:07.199Z,3.28
2022-12-31T08:44:45.188Z,3.13
2022-12-31T08:47:23.983Z,3.08
2022-12-31T08:50:00.275Z,3.17
2022-12-31T08:52:36.087Z,3.58
2022-12-31T08:55:12.358Z,3.22
2022-12-31T08:57:54.341Z,3.42
2022-12-31T09:00:31.027Z,3.70
2022-12-31T09:03:21.655Z,3.60
2022-12-31T09:06:02.129Z,3.78
2022-12-31T09:08:41.681Z,3.80
2022-12-31T09:11:23.726Z,3.58
2022-12-31T09:14:25.113Z,3.53
2022-12-31T09:17:07.942Z,3.63
2022-12-31T09:19:44.705Z,3.40
2022-12-31T09:22:19.544Z,3.60
2022-12-31T09:24:54.342Z,4.13
2022-12-31T09:27:31.143Z,3.38
2022-12-31T09:30:11.970Z,3.50
2022-12-31T09:33:00.623Z,4.05
2022-12-31T09:35:44.135Z,3.22
2022-12-31T09:38:22.021Z,3.75
2022-12-31T09:41:08.081Z,3.58
2022-12-31T09:43:58.971Z,3.33
2022-12-31T09:46:49.496Z,4.05
2022-12-31T09:49:47.169Z,4.20
2022-12-31T09:52:34.146Z,3.67
2022-12-31T09:55:32.050Z,3.60
2022-12-31T09:58:14.627Z,3.80
2022-12-31T10:00:54.263Z,3.50
2022-12-31T10:03:37.724Z,3.35
2022-12-31T10:06:27.474Z,3.95
2022-12-31T10:09:14.276Z,3.50
2022-12-31T10:12:05.603Z,3.90
2022-12-31T10:15:09.266Z,4.28
2022-12-31T10:17:53.945Z,3.67
2022-12-31T10:20:38.842Z,3.45
2022-12-31T10:23:45.345Z,3.10
2022-12-31T10:26:26.389Z,3.13
2022-12-31T10:29:01.590Z,3.15
2022-12-31T10:31:45.771Z,3.33
2022-12-31T10:34:21.567Z,3.63
2022-12-31T10:37:03.953Z,3.53
2022-12-31T10:39:42.413Z,3.33
2022-12-31T10:42:27.694Z,3.40
2022-12-31T10:45:16.019Z,4.07
2022-12-31T10:48:26.365Z,3.60
2022-12-31T10:51:20.818Z,3.15
2022-12-31T10:54:04.064Z,3.28
2022-12-31T10:56:56.734Z,3.20
2022-12-31T10:59:55.794Z,3.33
2022-12-31T11:02:56.990Z,3.80
2022-12-31T11:05:49.535Z,3.00
2022-12-31T11:08:35.508Z,3.10
2022-12-31T11:11:24.060Z,3.28
2022-12-31T11:14:34.091Z,3.28
2022-12-31T11:17:36.938Z,3.45
2022-12-31T11:20:28.524Z,3.47
2022-12-31T11:23:07.762Z,3.28
2022-12-31T11:25:49.218Z,3.90
2022-12-31T11:28:33.872Z,3.50
2022-12-31T11:31:23.841Z,3.38
2022-12-31T11:34:14.199Z,3.10
2022-12-31T11:36:52.799Z,3.22
2022-12-31T11:39:34.442Z,3.30
2022-12-31T11:42:17.763Z,3.92
2022-12-31T11:44:57.762Z,3.30
2022-12-31T11:48:27.927Z,3.08
2022-12-31T11:50:53.331Z,3.30
2022-12-31T11:53:51.985Z,3.05
2022-12-31T11:56:33.595Z,2.95
2022-12-31T11:59:19.265Z,3.25
2022-12-31T12:02:05.160Z,3.00
2022-12-31T12:04:43.198Z,2.97
2022-12-31T12:07:19.887Z,2.97
2022-12-31T12:09:54.495Z,3.03
2022-12-31T12:12:31.087Z,3.55
2022-12-31T12:15:05.882Z,3.83
2022-12-31T12:17:43.550Z,3.15
2022-12-31T12:20:22.918Z,3.30
2022-12-31T12:22:59.827Z,3.22
2022-12-31T12:25:43.097Z,3.10
2022-12-31T12:28:25.907Z,3.08
2022-12-31T12:31:06.360Z,3.22
2022-12-31T12:33:50.566Z,2.92
2022-12-31T12:36:27.478Z,3.60
2022-12-31T12:39:10.387Z,3.72
2022-12-31T12:41:45.961Z,3.40
2022-12-31T12:44:23.048Z,3.13
2022-12-31T12:46:57.834Z,3.30
2022-12-31T12:49:37.391Z,2.67
2022-12-31T12:52:26.735Z,2.92
2022-12-31T12:55:07.979Z,2.88
2022-12-31T12:57:49.278Z,3.20
2022-12-31T13:00:26.605Z,3.03
2022-12-31T13:03:13.547Z,2.85
2022-12-31T13:05:56.792Z,3.15
2022-12-31T13:08:40.224Z,3.20
2022-12-31T13:11:27.665Z,3.20
2022-12-31T13:14:06.406Z,2.92
2022-12-31T13:16:44.544Z,3.13
2022-12-31T13:19:23.572Z,3.10
2022-12-31T13:22:03.685Z,3.42
2022-12-31T13:24:49.480Z,3.28
2022-12-31T13:27:25.335Z,3.30
2022-12-31T13:30:01.683Z,3.28
2022-12-31T13:32:44.479Z,3.42
2022-12-31T13:35:26.793Z,2.75
2022-12-31T13:38:05.975Z,3.55
2022-12-31T13:40:45.741Z,3.97
2022-12-31T13:43:22.905Z,3.33
2022-12-31T13:46:00.496Z,3.58
2022-12-31T13:48:37.814Z,3.47
2022-12-31T13:51:17.493Z,3.53
2022-12-31T13:54:03.484Z,3.50
2022-12-31T13:56:43.579Z,3.40
2022-12-31T13:59:23.605Z,3.60
2022-12-31T14:02:05.353Z,3.88
2022-12-31T14:04:47.021Z,3.92
2022-12-31T14:07:34.135Z,3.80
2022-12-31T14:10:19.665Z,3.63
2022-12-31T14:13:04.791Z,3.60
2022-12-31T14:15:45.909Z,2.78
2022-12-31T14:18:27.638Z,3.58
2022-12-31T14:21:08.050Z,3.45
2022-12-31T14:23:50.788Z,3.38
2022-12-31T14:26:34.932Z,3.50
2022-12-31T14:29:21.681Z,3.28
2022-12-31T14:32:19.837Z,3.00
2022-12-31T14:35:04.704Z,3.25
2022-12-31T14:37:44.410Z,3.50
2022-12-31T14:40:24.636Z,3.28
2022-12-31T14:43:14.670Z,3.38
2022-12-31T14:46:00.324Z,3.83
2022-12-31T14:48:48.483Z,3.53
2022-12-31T14:51:24.127Z,3.50
2022-12-31T14:54:00.754Z,3.30
2022-12-31T14:56:44.157Z,3.55
2022-12-31T14:59:38.808Z,4.28
2022-12-31T15:02:32.812Z,3.40
2022-12-31T15:05:21.444Z,3.20
2022-12-31T15:08:02.438Z,3.85
2022-12-31T15:10:43.623Z,4.03
2022-12-31T15:13:25.236Z,3.60
2022-12-31T15:16:17.215Z,3.67
2022-12-31T15:19:12.570Z,3.60
2022-12-31T15:21:53.866Z,3.00
2022-12-31T15:24:32.295Z,2.85
2022-12-31T15:27:09.708Z,2.97
2022-12-31T15:29:49.001Z,3.30
2022-12-31T15:32:27.769Z,3.95
2022-12-31T15:35:29.837Z,4.00
2022-12-31T15:38:08.281Z,3.78
2022-12-31T15:40:48.820Z,3.92
2022-12-31T15:43:27.093Z,3.45
2022-12-31T15:46:02.123Z,3.25
2022-12-31T15:48:41.628Z,2.58
2022-12-31T15:51:20.847Z,2.22
2022-12-31T15:53:57.467Z,2.35
2022-12-31T15:56:36.315Z,2.70
2022-12-31T15:59:13.254Z,2.30
2022-12-31T16:01:50.589Z,2.60
2022-12-31T16:04:29.197Z,2.60
2022-12-31T16:07:09.493Z,2.00
2022-12-31T16:09:46.775Z,2.42
2022-12-31T16:12:32.760Z,2.10
2022-12-31T16:15:11.029Z,2.08
2022-12-31T16:17:47.021Z,2.33
2022-12-31T16:20:29.728Z,2.35
2022-12-31T16:23:19.497Z,2.42
2022-12-31T16:25:56.440Z,2.63
2022-12-31T16:28:35.938Z,2.22
2022-12-31T16:31:18.394Z,2.58
2022-12-31T16:33:54.805Z,2.50
2022-12-31T16:36:30.724Z,2.33
2022-12-31T16:39:28.695Z,2.33
2022-12-31T16:42:24.440Z,2.63
2022-12-31T16:45:00.809Z,2.25
2022-12-31T16:47:41.059Z,2.20
2022-12-31T16:50:21.581Z,2.25
2022-12-31T16:53:03.136Z,2.00
2022-12-31T16:55:41.033Z,2.10
2022-12-31T16:58:23.033Z,2.10
2022-12-31T17:00:59.737Z,2.15
2022-12-31T17:03:36.376Z,1.92
2022-12-31T17:06:19.710Z,2.15
2022-12-31T17:09:22.447Z,2.20
2022-12-31T17:12:12.272Z,2.17
2022-12-31T17:14:56.398Z,2.17
2022-12-31T17:17:37.893Z,2.20
2022-12-31T17:20:24.133Z,2.30
2022-12-31T17:23:02.606Z,2.58
2022-12-31T17:25:40.482Z,2.22
2022-12-31T17:28:27.747Z,2.42
2022-12-31T17:31:06.203Z,2.42
2022-12-31T17:33:41.740Z,2.20
2022-12-31T17:36:27.100Z,2.08
2022-12-31T17:39:21.516Z,2.30
2022-12-31T17:42:00.120Z,2.53
2022-12-31T17:44:39.229Z,2.45
2022-12-31T17:47:17.720Z,2.13
2022-12-31T17:49:54.121Z,2.22
2022-12-31T17:52:30.098Z,2.42
2022-12-31T17:55:05.570Z,2.88
2022-12-31T17:57:41.762Z,2.53
2022-12-31T18:00:24.764Z,2.70
2022-12-31T18:03:00.376Z,2.63
2022-12-31T18:05:36.434Z,2.92
2022-12-31T18:08:12.171Z,2.40
2022-12-31T18:10:49.754Z,3.35
2022-12-31T18:13:27.768Z,3.33
2022-12-31T18:16:05.249Z,2.83
2022-12-31T18:18:41.787Z,3.17
2022-12-31T18:21:24.788Z,3.30
2022-12-31T18:26:37.006Z,3.60
2022-12-31T18:29:20.252Z,3.33
2022-12-31T18:31:58.343Z,2.85
2022-12-31T18:34:33.976Z,3.00
2022-12-31T18:37:21.455Z,2.92
2022-12-31T18:39:57.692Z,3.42
2022-12-31T18:42:34.867Z,3.00
2022-12-31T18:45:17.428Z,2.85
2022-12-31T18:47:55.725Z,3.08
2022-12-31T18:50:31.376Z,4.03
2022-12-31T18:53:08.144Z,3.28
2022-12-31T18:55:45.055Z,3.20
2022-12-31T18:58:21.124Z,3.42
2022-12-31T19:00:57.013Z,3.22
2022-12-31T19:03:34.875Z,2.70
2022-12-31T19:06:10.552Z,2.45
2022-12-31T19:08:47.213Z,3.03
2022-12-31T19:11:23.135Z,2.90
2022-12-31T19:13:59.057Z,3.35
2022-12-31T19:16:34.787Z,2.85
2022-12-31T19:19:12.618Z,2.50
2022-12-31T19:21:49.040Z,2.25
2022-12-31T19:24:28.346Z,2.85
2022-12-31T19:27:04.933Z,2.40
2022-12-31T19:29:40.733Z,2.92
2022-12-31T19:32:16.527Z,2.67
2022-12-31T19:34:55.492Z,2.53
2022-12-31T19:37:31.068Z,2.75
2022-12-31T19:40:08.230Z,2.78
2022-12-31T19:42:43.813Z,2.78
2022-12-31T19:45:19.663Z,3.00
2022-12-31T19:47:57.150Z,3.28
2022-12-31T19:50:35.198Z,2.90
2022-12-31T19:53:12.665Z,2.85
2022-12-31T19:55:49.225Z,3.13
2022-12-31T19:58:27.071Z,2.92
2022-12-31T20:01:03.463Z,2.90
2022-12-31T20:03:38.245Z,3.17
2022-12-31T20:06:16.296Z,3.47
2022-12-31T20:08:50.981Z,2.63
2022-12-31T20:11:27.002Z,2.95
2022-12-31T20:14:01.752Z,3.00
2022-12-31T20:16:36.944Z,3.80
2022-12-31T20:19:13.582Z,3.45
2022-12-31T20:21:51.391Z,3.22
2022-12-31T20:24:27.183Z,3.78
2022-12-31T20:27:02.761Z,3.55
2022-12-31T20:29:38.461Z,3.50
2022-12-31T20:32:14.474Z,3.20
2022-12-31T20:34:50.397Z,3.10
2022-12-31T20:37:27.991Z,4.15
2022-12-31T20:40:03.830Z,3.60
2022-12-31T20:42:41.912Z,3.10
2022-12-31T20:45:17.749Z,2.95
2022-12-31T20:47:55.129Z,3.10
2022-12-31T20:50:29.852Z,3.53
2022-12-31T20:53:06.554Z,3.45
2022-12-31T20:55:43.097Z,3.20
2022-12-31T20:58:19.527Z,3.30
2022-12-31T21:00:56.670Z,3.30
2022-12-31T21:06:28.237Z,3.38
2022-12-31T21:09:07.507Z,2.92
2022-12-31T21:11:58.814Z,3.10
2022-12-31T21:14:37.475Z,3.80
2022-12-31T21:17:16.815Z,3.00
2022-12-31T21:19:52.881Z,2.90
2022-12-31T21:22:28.433Z,3.33
2022-12-31T21:25:06.584Z,3.17
2022-12-31T21:27:42.342Z,2.63
2022-12-31T21:30:20.174Z,2.55
2022-12-31T21:32:55.956Z,2.63
2022-12-31T21:35:53.301Z,2.40
2022-12-31T21:38:27.511Z,2.70
2022-12-31T21:41:07.614Z,2.92
2022-12-31T21:43:42.909Z,2.75
2022-12-31T21:46:19.686Z,2.67
2022-12-31T21:48:59.965Z,2.90
2022-12-31T21:51:56.607Z,2.60
2022-12-31T21:54:48.005Z,2.35
2022-12-31T21:57:26.074Z,3.05
2022-12-31T22:00:41.117Z,2.50
2022-12-31T22:03:27.957Z,2.33
2022-12-31T22:06:07.450Z,2.60
2022-12-31T22:08:47.408Z,2.42
2022-12-31T22:11:23.917Z,2.67
2022-12-31T22:14:02.314Z,2.25
2022-12-31T22:16:37.848Z,2.33
2022-12-31T22:19:13.777Z,2.60
2022-12-31T22:21:49.300Z,2.60
2022-12-31T22:24:26.642Z,2.53
2022-12-31T22:27:28.797Z,2.50
2022-12-31T22:30:00.915Z,2.88
2022-12-31T22:32:36.968Z,2.40
2022-12-31T22:35:13.427Z,2.50
2022-12-31T22:38:00.890Z,2.95
2022-12-31T22:40:42.710Z,2.80
2022-12-31T22:43:26.199Z,2.60
2022-12-31T22:46:12.964Z,2.55
2022-12-31T22:48:48.656Z,2.50
2022-12-31T22:51:56.582Z,2.50
2022-12-31T22:54:29.133Z,3.03
2022-12-31T22:57:06.235Z,2.70
2022-12-31T22:59:48.727Z,2.47
2022-12-31T23:02:29.151Z,2.60
2022-12-31T23:05:14.783Z,2.70
2022-12-31T23:07:51.334Z,2.70
2022-12-31T23:10:45.232Z,2.78
2022-12-31T23:13:37.398Z,2.80
2022-12-31T23:16:29.333Z,2.90
2022-12-31T23:19:23.195Z,2.60
2022-12-31T23:22:19.066Z,2.70
2022-12-31T23:25:02.698Z,2.33
2022-12-31T23:27:41.920Z,2.53
2022-12-31T23:30:19.115Z,2.42
2022-12-31T23:32:57.317Z,2.20
2022-12-31T23:35:37.599Z,2.47
2022-12-31T23:38:13.377Z,2.10
2022-12-31T23:40:49.721Z,2.40
2022-12-31T23:43:29.180Z,2.42
2022-12-31T23:46:05.856Z,2.08
2022-12-31T23:48:41.551Z,2.00
2022-12-31T23:51:19.381Z,2.30
2022-12-31T23:53:55.503Z,1.90
2022-12-31T23:56:31.552Z,2.10
2022-12-31T23:59:07.173Z,2.20
